createdAt,value
2023-04-27T00:01:13.740Z,6.82
2023-04-27T00:03:41.446Z,6.93
2023-04-27T00:06:09.643Z,4.82
2023-04-27T00:08:36.426Z,6.45
2023-04-27T00:11:03.556Z,8.63
2023-04-27T00:13:30.594Z,7.05
2023-04-27T00:15:57.405Z,7.85
2023-04-27T00:18:24.108Z,4.35
2023-04-27T00:20:51.026Z,7.60
2023-04-27T00:23:17.686Z,6.25
2023-04-27T00:25:44.313Z,6.78
2023-04-27T00:28:10.949Z,4.93
2023-04-27T00:30:37.672Z,5.05
2023-04-27T00:33:04.431Z,5.45
2023-04-27T00:35:32.969Z,4.97
2023-04-27T00:37:59.753Z,5.20
2023-04-27T00:40:26.474Z,6.25
2023-04-27T00:42:53.122Z,6.00
2023-04-27T00:45:19.740Z,7.10
2023-04-27T00:47:46.708Z,6.82
2023-04-27T00:50:14.341Z,6.63
2023-04-27T00:52:41.677Z,5.97
2023-04-27T00:55:09.486Z,8.32
2023-04-27T00:57:36.243Z,8.02
2023-04-27T01:00:06.535Z,9.25
2023-04-27T01:02:33.666Z,11.52
2023-04-27T01:05:02.020Z,8.80
2023-04-27T01:07:29.202Z,6.05
2023-04-27T01:09:56.321Z,6.43
2023-04-27T01:12:23.000Z,8.05
2023-04-27T01:14:49.606Z,4.78
2023-04-27T01:17:16.623Z,5.45
2023-04-27T01:19:44.884Z,7.10
2023-04-27T01:22:11.751Z,6.43
2023-04-27T01:24:38.422Z,6.03
2023-04-27T01:27:05.165Z,5.18
2023-04-27T01:29:31.878Z,9.32
2023-04-27T01:31:58.518Z,7.85
2023-04-27T01:34:25.128Z,6.97
2023-04-27T01:36:51.713Z,5.55
2023-04-27T01:39:18.415Z,7.25
2023-04-27T01:41:45.071Z,5.68
2023-04-27T01:44:12.056Z,8.15
2023-04-27T01:46:38.820Z,6.43
2023-04-27T01:49:05.814Z,7.60
2023-04-27T01:51:32.992Z,6.13
2023-04-27T01:53:59.700Z,7.35
2023-04-27T01:56:26.425Z,6.25
2023-04-27T01:58:53.540Z,6.13
2023-04-27T02:01:20.806Z,6.03
2023-04-27T02:03:47.713Z,6.68
2023-04-27T02:06:14.608Z,6.93
2023-04-27T02:08:41.302Z,5.82
2023-04-27T02:11:07.939Z,6.53
2023-04-27T02:13:34.533Z,7.03
2023-04-27T02:16:03.292Z,7.72
2023-04-27T02:18:30.401Z,5.15
2023-04-27T02:20:57.244Z,5.40
2023-04-27T02:23:24.088Z,7.57
2023-04-27T02:25:51.340Z,5.38
2023-04-27T02:28:18.128Z,8.88
2023-04-27T02:30:45.240Z,5.93
2023-04-27T02:33:11.902Z,5.47
2023-04-27T02:35:38.543Z,5.30
2023-04-27T02:38:05.201Z,6.07
2023-04-27T02:40:31.933Z,5.28
2023-04-27T02:42:58.655Z,6.10
2023-04-27T02:45:25.360Z,6.60
2023-04-27T02:47:52.139Z,9.25
2023-04-27T02:50:18.904Z,5.93
2023-04-27T02:52:45.629Z,7.30
2023-04-27T02:55:12.389Z,5.90
2023-04-27T02:57:39.050Z,7.40
2023-04-27T03:00:06.958Z,7.22
2023-04-27T03:02:33.748Z,5.80
2023-04-27T03:05:00.660Z,7.35
2023-04-27T03:07:27.316Z,6.43
2023-04-27T03:09:53.913Z,5.45
2023-04-27T03:12:20.523Z,9.43
2023-04-27T03:14:47.171Z,6.78
2023-04-27T03:17:13.792Z,6.78
2023-04-27T03:19:41.164Z,5.20
2023-04-27T03:22:07.845Z,6.05
2023-04-27T03:24:34.897Z,5.97
2023-04-27T03:27:02.960Z,6.43
2023-04-27T03:29:29.589Z,5.25
2023-04-27T03:31:56.255Z,5.90
2023-04-27T03:34:23.528Z,5.72
2023-04-27T03:36:50.871Z,5.13
2023-04-27T03:39:17.566Z,6.40
2023-04-27T03:41:44.195Z,6.85
2023-04-27T03:44:10.924Z,7.20
2023-04-27T03:46:37.580Z,4.88
2023-04-27T03:49:04.301Z,6.13
2023-04-27T03:51:34.132Z,7.75
2023-04-27T03:54:00.841Z,6.47
2023-04-27T03:56:27.460Z,6.45
2023-04-27T03:58:54.171Z,5.53
2023-04-27T04:01:21.865Z,5.90
2023-04-27T04:03:48.837Z,6.90
2023-04-27T04:06:15.664Z,6.82
2023-04-27T04:08:42.304Z,7.43
2023-04-27T04:11:08.975Z,5.20
2023-04-27T04:13:36.473Z,5.22
2023-04-27T04:16:03.094Z,7.75
2023-04-27T04:18:29.801Z,6.78
2023-04-27T04:20:56.593Z,6.78
2023-04-27T04:23:23.641Z,7.82
2023-04-27T04:25:51.025Z,7.35
2023-04-27T04:28:17.736Z,12.90
2023-04-27T04:30:44.423Z,6.82
2023-04-27T04:33:11.002Z,8.40
2023-04-27T04:35:41.531Z,6.47
2023-04-27T04:38:08.597Z,7.40
2023-04-27T04:40:36.057Z,6.20
2023-04-27T04:43:02.927Z,8.30
2023-04-27T04:45:30.040Z,7.75
2023-04-27T04:47:56.752Z,9.38
2023-04-27T04:50:23.901Z,5.93
2023-04-27T04:52:50.903Z,5.90
2023-04-27T04:55:17.653Z,8.18
2023-04-27T04:57:44.362Z,5.53
2023-04-27T05:00:13.053Z,7.70
2023-04-27T05:02:43.162Z,6.07
2023-04-27T05:05:10.220Z,5.32
2023-04-27T05:07:36.938Z,7.93
2023-04-27T05:10:03.864Z,6.18
2023-04-27T05:12:30.893Z,6.85
2023-04-27T05:14:57.532Z,5.85
2023-04-27T05:17:24.208Z,6.05
2023-04-27T05:19:51.071Z,6.50
2023-04-27T05:22:17.817Z,7.38
2023-04-27T05:24:44.444Z,6.35
2023-04-27T05:27:13.100Z,7.15
2023-04-27T05:29:39.756Z,4.93
2023-04-27T05:32:06.474Z,8.63
2023-04-27T05:34:33.204Z,5.18
2023-04-27T05:36:59.842Z,6.88
2023-04-27T05:39:26.703Z,6.97
2023-04-27T05:41:54.261Z,8.18
2023-04-27T05:44:20.914Z,7.43
2023-04-27T05:46:47.538Z,7.75
2023-04-27T05:49:14.484Z,9.40
2023-04-27T05:51:41.702Z,7.63
2023-04-27T05:54:08.632Z,10.38
2023-04-27T05:56:35.452Z,7.95
2023-04-27T05:59:02.812Z,10.63
2023-04-27T06:01:29.620Z,8.43
2023-04-27T06:04:01.197Z,7.55
2023-04-27T06:06:28.665Z,6.57
2023-04-27T06:08:55.273Z,7.47
2023-04-27T06:11:22.077Z,8.27
2023-04-27T06:13:48.696Z,7.55
2023-04-27T06:16:15.964Z,8.73
2023-04-27T06:18:43.082Z,6.10
2023-04-27T06:21:09.710Z,7.63
2023-04-27T06:23:36.465Z,9.75
2023-04-27T06:26:03.424Z,8.55
2023-04-27T06:28:30.103Z,7.53
2023-04-27T06:30:56.759Z,8.52
2023-04-27T06:33:23.406Z,7.03
2023-04-27T06:35:50.266Z,6.43
2023-04-27T06:38:16.914Z,6.38
2023-04-27T06:40:43.670Z,8.70
2023-04-27T06:43:10.323Z,6.32
2023-04-27T06:45:36.930Z,6.65
2023-04-27T06:48:03.732Z,9.60
2023-04-27T06:50:31.045Z,9.23
2023-04-27T06:52:57.719Z,5.20
2023-04-27T06:55:24.421Z,9.38
2023-04-27T06:57:51.138Z,7.57
2023-04-27T07:00:18.262Z,7.57
2023-04-27T07:02:44.978Z,6.93
2023-04-27T07:05:11.655Z,7.13
2023-04-27T07:07:38.277Z,8.57
2023-04-27T07:10:05.367Z,6.85
2023-04-27T07:12:32.020Z,6.82
2023-04-27T07:14:58.599Z,9.20
2023-04-27T07:17:26.029Z,6.65
2023-04-27T07:19:52.686Z,6.53
2023-04-27T07:22:20.042Z,6.28
2023-04-27T07:24:46.652Z,5.95
2023-04-27T07:27:15.014Z,5.63
2023-04-27T07:29:42.357Z,8.45
2023-04-27T07:32:09.388Z,6.03
2023-04-27T07:34:49.070Z,6.68
2023-04-27T07:37:19.994Z,6.63
2023-04-27T07:39:47.335Z,9.50
2023-04-27T07:42:13.991Z,6.47
2023-04-27T07:44:40.845Z,6.90
2023-04-27T07:47:07.720Z,7.75
2023-04-27T07:49:35.549Z,7.07
2023-04-27T07:52:02.269Z,5.00
2023-04-27T07:54:29.184Z,5.07
2023-04-27T07:56:55.910Z,7.00
2023-04-27T07:59:22.545Z,5.65
2023-04-27T08:01:49.236Z,6.70
2023-04-27T08:04:16.336Z,10.70
2023-04-27T08:06:43.684Z,6.25
2023-04-27T08:09:11.322Z,12.90
2023-04-27T08:11:38.369Z,8.25
2023-04-27T08:14:05.187Z,10.35
2023-04-27T08:16:32.067Z,10.07
2023-04-27T08:19:00.466Z,12.10
2023-04-27T08:21:28.515Z,9.02
2023-04-27T08:23:55.368Z,12.43
2023-04-27T08:26:23.459Z,11.77
2023-04-27T08:28:51.583Z,8.75
2023-04-27T08:31:18.211Z,13.68
2023-04-27T08:33:44.834Z,20.88
2023-04-27T08:36:11.511Z,13.32
2023-04-27T08:38:38.138Z,12.93
2023-04-27T08:41:20.313Z,13.93
2023-04-27T08:43:51.458Z,10.02
2023-04-27T08:46:22.686Z,12.75
2023-04-27T08:48:53.374Z,12.73
2023-04-27T08:51:21.763Z,11.20
2023-04-27T08:53:53.997Z,11.15
2023-04-27T08:56:23.451Z,6.93
2023-04-27T08:58:50.096Z,7.65
2023-04-27T09:01:17.103Z,9.80
2023-04-27T09:03:46.761Z,9.30
2023-04-27T09:06:14.570Z,5.97
2023-04-27T09:08:48.577Z,7.68
2023-04-27T09:11:17.188Z,9.10
2023-04-27T09:13:45.410Z,9.10
2023-04-27T09:16:15.333Z,8.38
2023-04-27T09:18:43.610Z,7.68
2023-04-27T09:21:10.837Z,7.20
2023-04-27T09:23:39.643Z,6.07
2023-04-27T09:26:08.197Z,9.75
2023-04-27T09:28:39.431Z,8.05
2023-04-27T09:31:09.027Z,5.80
2023-04-27T09:33:36.460Z,6.95
2023-04-27T09:36:07.412Z,8.45
2023-04-27T09:38:34.304Z,6.40
2023-04-27T09:41:01.741Z,7.95
2023-04-27T09:43:29.897Z,6.13
2023-04-27T09:45:57.293Z,6.53
2023-04-27T09:48:25.103Z,9.30
2023-04-27T09:50:52.788Z,9.02
2023-04-27T09:53:30.125Z,6.75
2023-04-27T09:56:28.240Z,8.63
2023-04-27T09:59:10.477Z,10.57
2023-04-27T10:01:46.322Z,8.87
2023-04-27T10:04:35.097Z,7.78
2023-04-27T10:07:05.050Z,6.45
2023-04-27T10:09:37.751Z,6.03
2023-04-27T10:12:15.126Z,6.90
2023-04-27T10:14:56.131Z,7.65
2023-04-27T10:17:30.968Z,10.52
2023-04-27T10:20:03.768Z,5.80
2023-04-27T10:22:48.326Z,7.88
2023-04-27T10:25:24.689Z,5.18
2023-04-27T10:28:01.935Z,7.70
2023-04-27T10:30:35.904Z,7.32
2023-04-27T10:33:10.535Z,5.53
2023-04-27T10:35:41.475Z,6.95
2023-04-27T10:38:17.386Z,7.70
2023-04-27T10:40:46.457Z,7.70
2023-04-27T10:43:15.791Z,5.80
2023-04-27T10:45:43.588Z,8.07
2023-04-27T10:48:14.489Z,8.40
2023-04-27T10:50:41.629Z,7.72
2023-04-27T10:53:08.588Z,6.60
2023-04-27T10:55:36.147Z,6.68
2023-04-27T10:58:04.048Z,7.28
2023-04-27T11:00:32.446Z,6.85
2023-04-27T11:03:14.400Z,5.78
2023-04-27T11:05:42.901Z,7.00
2023-04-27T11:08:12.809Z,7.65
2023-04-27T11:10:41.226Z,7.00
2023-04-27T11:13:13.043Z,8.32
2023-04-27T11:15:51.190Z,8.13
2023-04-27T11:18:19.484Z,6.28
2023-04-27T11:20:49.630Z,6.05
2023-04-27T11:23:32.001Z,6.30
2023-04-27T11:25:59.123Z,8.67
2023-04-27T11:28:26.093Z,6.68
2023-04-27T11:30:59.675Z,4.93
2023-04-27T11:33:27.558Z,8.20
2023-04-27T11:35:54.719Z,7.95
2023-04-27T11:38:21.942Z,6.88
2023-04-27T11:41:06.657Z,5.35
2023-04-27T11:43:34.224Z,9.27
2023-04-27T11:46:04.798Z,5.75
2023-04-27T11:48:32.267Z,8.35
2023-04-27T11:51:00.463Z,5.88
2023-04-27T11:53:38.162Z,6.18
2023-04-27T11:56:07.789Z,7.43
2023-04-27T11:58:36.160Z,6.70
2023-04-27T12:01:04.273Z,5.45
2023-04-27T12:03:31.782Z,8.60
2023-04-27T12:06:11.515Z,5.93
2023-04-27T12:08:45.343Z,5.30
2023-04-27T12:11:11.983Z,7.13
2023-04-27T12:13:38.586Z,6.38
2023-04-27T12:16:05.610Z,10.68
2023-04-27T12:18:32.293Z,6.72
2023-04-27T12:21:03.085Z,6.10
2023-04-27T12:23:30.236Z,7.20
2023-04-27T12:25:56.834Z,6.15
2023-04-27T12:28:23.496Z,4.70
2023-04-27T12:30:50.229Z,5.53
2023-04-27T12:33:17.226Z,3.65
2023-04-27T12:35:43.938Z,8.35
2023-04-27T12:38:10.526Z,7.07
2023-04-27T12:40:37.512Z,9.15
2023-04-27T12:43:04.220Z,5.10
2023-04-27T12:45:30.979Z,6.35
2023-04-27T12:48:02.568Z,4.88
2023-04-27T12:50:31.399Z,7.10
2023-04-27T12:52:58.032Z,5.38
2023-04-27T12:55:32.936Z,5.05
2023-04-27T12:58:01.158Z,5.03
2023-04-27T13:00:29.967Z,6.63
2023-04-27T13:02:57.274Z,6.18
2023-04-27T13:05:24.199Z,4.50
2023-04-27T13:07:50.864Z,6.82
2023-04-27T13:10:17.559Z,5.28
2023-04-27T13:12:44.214Z,5.20
2023-04-27T13:15:11.335Z,4.47
2023-04-27T13:17:38.102Z,6.82
2023-04-27T13:20:06.326Z,4.05
2023-04-27T13:22:33.095Z,4.85
2023-04-27T13:24:59.781Z,7.10
2023-04-27T13:27:28.419Z,5.85
2023-04-27T13:29:55.071Z,5.70
2023-04-27T13:32:22.304Z,4.10
2023-04-27T13:34:49.260Z,6.13
2023-04-27T13:37:16.477Z,5.10
2023-04-27T13:39:43.150Z,5.93
2023-04-27T13:42:10.177Z,4.93
2023-04-27T13:44:36.790Z,5.13
2023-04-27T13:47:03.520Z,4.57
2023-04-27T13:49:30.297Z,5.68
2023-04-27T13:51:56.949Z,6.50
2023-04-27T13:54:23.893Z,5.40
2023-04-27T13:56:51.181Z,4.50
2023-04-27T13:59:17.846Z,5.78
2023-04-27T14:01:44.451Z,4.80
2023-04-27T14:04:11.496Z,5.30
2023-04-27T14:06:38.270Z,4.90
2023-04-27T14:09:04.998Z,5.18
2023-04-27T14:11:37.165Z,4.78
2023-04-27T14:14:08.869Z,5.35
2023-04-27T14:16:35.718Z,4.90
2023-04-27T14:19:02.445Z,5.57
2023-04-27T14:21:29.251Z,5.07
2023-04-27T14:23:56.113Z,3.88
2023-04-27T14:26:22.756Z,8.30
2023-04-27T14:28:49.464Z,6.90
2023-04-27T14:31:16.134Z,5.80
2023-04-27T14:33:42.777Z,5.32
2023-04-27T14:36:09.973Z,7.53
2023-04-27T14:38:36.591Z,5.88
2023-04-27T14:41:05.633Z,7.05
2023-04-27T14:43:32.278Z,7.60
2023-04-27T14:46:05.067Z,8.23
2023-04-27T14:48:46.577Z,7.20
2023-04-27T14:51:16.428Z,5.28
2023-04-27T14:53:44.023Z,6.10
2023-04-27T14:56:11.599Z,6.45
2023-04-27T14:58:38.663Z,4.97
2023-04-27T15:01:06.028Z,5.72
2023-04-27T15:03:33.377Z,3.88
2023-04-27T15:06:01.261Z,5.15
2023-04-27T15:08:28.141Z,3.72
2023-04-27T15:10:59.193Z,7.90
2023-04-27T15:13:28.876Z,5.20
2023-04-27T15:15:57.088Z,5.22
2023-04-27T15:18:24.783Z,6.70
2023-04-27T15:20:59.666Z,3.53
2023-04-27T15:23:27.447Z,6.05
2023-04-27T15:25:55.676Z,3.85
2023-04-27T15:28:22.747Z,4.35
2023-04-27T15:30:49.568Z,5.00
2023-04-27T15:33:17.122Z,5.72
2023-04-27T15:35:43.993Z,5.30
2023-04-27T15:38:12.833Z,4.78
2023-04-27T15:40:39.913Z,3.92
2023-04-27T15:43:06.855Z,4.72
2023-04-27T15:45:33.885Z,7.35
2023-04-27T15:48:00.950Z,4.30
2023-04-27T15:50:27.701Z,4.10
2023-04-27T15:52:54.355Z,5.07
2023-04-27T15:55:22.032Z,6.25
2023-04-27T15:57:48.710Z,8.48
2023-04-27T16:00:16.880Z,6.32
2023-04-27T16:02:43.796Z,4.03
2023-04-27T16:05:10.827Z,4.47
2023-04-27T16:07:39.579Z,3.80
2023-04-27T16:10:07.249Z,2.97
2023-04-27T16:12:33.930Z,4.35
2023-04-27T16:15:00.949Z,5.55
2023-04-27T16:17:29.041Z,6.00
2023-04-27T16:19:55.853Z,5.72
2023-04-27T16:22:22.505Z,6.93
2023-04-27T16:24:49.295Z,6.20
2023-04-27T16:27:17.580Z,2.95
2023-04-27T16:29:44.333Z,3.88
2023-04-27T16:32:11.245Z,5.88
2023-04-27T16:34:38.199Z,4.75
2023-04-27T16:37:05.631Z,4.13
2023-04-27T16:39:32.764Z,5.57
2023-04-27T16:41:59.360Z,5.63
2023-04-27T16:44:26.235Z,6.05
2023-04-27T16:46:52.866Z,4.20
2023-04-27T16:49:19.472Z,6.05
2023-04-27T16:51:46.186Z,5.07
2023-04-27T16:54:16.209Z,5.38
2023-04-27T16:56:42.880Z,3.90
2023-04-27T16:59:12.221Z,2.78
2023-04-27T17:01:39.339Z,4.10
2023-04-27T17:04:06.174Z,3.85
2023-04-27T17:06:33.108Z,4.25
2023-04-27T17:08:59.732Z,4.18
2023-04-27T17:11:26.595Z,4.05
2023-04-27T17:13:53.247Z,5.30
2023-04-27T17:16:20.200Z,5.50
2023-04-27T17:18:47.147Z,6.22
2023-04-27T17:21:13.882Z,4.38
2023-04-27T17:23:41.427Z,3.42
2023-04-27T17:26:08.575Z,3.88
2023-04-27T17:28:35.521Z,5.18
2023-04-27T17:31:02.207Z,4.15
2023-04-27T17:33:28.977Z,5.93
2023-04-27T17:35:55.604Z,3.72
2023-04-27T17:38:22.179Z,3.03
2023-04-27T17:40:48.856Z,3.10
2023-04-27T17:43:15.535Z,3.15
2023-04-27T17:45:42.546Z,3.08
2023-04-27T17:48:09.224Z,3.38
2023-04-27T17:50:37.457Z,3.30
2023-04-27T17:53:04.100Z,2.92
2023-04-27T17:55:31.201Z,4.47
2023-04-27T17:57:57.902Z,7.43
2023-04-27T18:00:24.652Z,5.93
2023-04-27T18:02:51.701Z,2.72
2023-04-27T18:05:18.564Z,5.90
2023-04-27T18:07:46.556Z,15.32
2023-04-27T18:10:13.543Z,7.13
2023-04-27T18:12:40.160Z,4.28
2023-04-27T18:15:09.668Z,6.35
2023-04-27T18:17:36.812Z,4.88
2023-04-27T18:20:11.275Z,4.72
2023-04-27T18:22:39.894Z,4.38
2023-04-27T18:25:07.981Z,4.32
2023-04-27T18:27:37.232Z,6.72
2023-04-27T18:30:05.907Z,7.28
2023-04-27T18:32:34.546Z,5.30
2023-04-27T18:35:01.315Z,3.80
2023-04-27T18:37:28.404Z,6.53
2023-04-27T18:39:55.009Z,5.03
2023-04-27T18:42:23.318Z,5.93
2023-04-27T18:44:54.602Z,4.15
2023-04-27T18:47:21.283Z,5.18
2023-04-27T18:49:47.922Z,6.03
2023-04-27T18:52:14.530Z,5.57
2023-04-27T18:54:42.026Z,8.55
2023-04-27T18:57:08.876Z,7.72
2023-04-27T18:59:38.208Z,7.05
2023-04-27T19:02:05.607Z,7.72
2023-04-27T19:04:33.543Z,9.63
2023-04-27T19:07:00.707Z,9.40
2023-04-27T19:09:27.449Z,8.13
2023-04-27T19:12:02.405Z,7.72
2023-04-27T19:14:30.705Z,9.30
2023-04-27T19:16:57.382Z,10.82
2023-04-27T19:19:24.852Z,6.72
2023-04-27T19:21:51.515Z,7.32
2023-04-27T19:24:18.126Z,7.75
2023-04-27T19:26:46.775Z,6.93
2023-04-27T19:29:13.759Z,10.23
2023-04-27T19:31:40.843Z,7.53
2023-04-27T19:34:07.567Z,10.63
2023-04-27T19:36:34.198Z,7.05
2023-04-27T19:39:01.077Z,7.38
2023-04-27T19:41:27.998Z,7.63
2023-04-27T19:43:54.844Z,6.78
2023-04-27T19:46:21.477Z,9.50
2023-04-27T19:48:48.155Z,6.65
2023-04-27T19:51:14.776Z,8.63
2023-04-27T19:53:41.635Z,11.90
2023-04-27T19:56:08.248Z,7.57
2023-04-27T19:58:35.929Z,8.65
2023-04-27T20:01:03.821Z,6.22
2023-04-27T20:03:31.349Z,8.00
2023-04-27T20:08:24.943Z,6.35
2023-04-27T20:10:51.631Z,10.93
2023-04-27T20:13:18.259Z,7.13
2023-04-27T20:15:44.922Z,7.72
2023-04-27T20:18:11.655Z,5.40
2023-04-27T20:20:38.900Z,6.85
2023-04-27T20:23:05.574Z,7.35
2023-04-27T20:25:32.937Z,9.93
2023-04-27T20:27:59.545Z,7.78
2023-04-27T20:30:27.745Z,8.18
2023-04-27T20:32:55.153Z,6.78
2023-04-27T20:35:22.304Z,7.95
2023-04-27T20:37:48.875Z,8.32
2023-04-27T20:40:17.976Z,6.57
2023-04-27T20:42:45.608Z,8.77
2023-04-27T20:45:12.767Z,8.80
2023-04-27T20:47:39.483Z,7.75
2023-04-27T20:50:07.305Z,8.18
2023-04-27T20:52:34.707Z,10.85
2023-04-27T20:55:02.215Z,7.07
2023-04-27T20:57:29.027Z,9.48
2023-04-27T20:59:55.727Z,7.50
2023-04-27T21:02:22.468Z,9.98
2023-04-27T21:04:49.211Z,9.60
2023-04-27T21:07:15.987Z,8.35
2023-04-27T21:09:42.619Z,11.88
2023-04-27T21:12:09.511Z,10.30
2023-04-27T21:14:36.337Z,7.88
2023-04-27T21:17:03.023Z,7.15
2023-04-27T21:19:29.676Z,6.30
2023-04-27T21:21:56.311Z,8.43
2023-04-27T21:24:23.051Z,8.18
2023-04-27T21:26:49.864Z,8.30
2023-04-27T21:29:16.596Z,9.10
2023-04-27T21:31:43.316Z,8.63
2023-04-27T21:34:09.915Z,11.27
2023-04-27T21:36:37.179Z,11.68
2023-04-27T21:39:03.903Z,8.88
2023-04-27T21:41:30.690Z,8.63
2023-04-27T21:43:57.349Z,10.90
2023-04-27T21:46:24.144Z,11.52
2023-04-27T21:48:51.028Z,7.80
2023-04-27T21:51:17.812Z,9.48
2023-04-27T21:53:44.431Z,10.20
2023-04-27T21:56:11.377Z,10.80
2023-04-27T21:58:38.207Z,13.40
2023-04-27T22:01:04.896Z,12.43
2023-04-27T22:03:32.642Z,13.73
2023-04-27T22:05:59.397Z,12.40
2023-04-27T22:08:26.240Z,13.45
2023-04-27T22:10:52.915Z,10.80
2023-04-27T22:13:19.891Z,12.32
2023-04-27T22:15:47.888Z,10.75
2023-04-27T22:18:15.289Z,12.57
2023-04-27T22:20:42.455Z,12.25
2023-04-27T22:23:09.461Z,8.13
2023-04-27T22:25:36.487Z,9.27
2023-04-27T22:28:03.108Z,10.52
2023-04-27T22:30:30.299Z,10.50
2023-04-27T22:32:57.602Z,8.70
2023-04-27T22:35:26.967Z,9.70
2023-04-27T22:37:59.311Z,15.15
2023-04-27T22:40:26.111Z,10.77
2023-04-27T22:42:53.682Z,9.40
2023-04-27T22:45:20.688Z,10.73
2023-04-27T22:47:47.368Z,9.27
2023-04-27T22:50:14.087Z,9.65
2023-04-27T22:52:44.019Z,10.85
2023-04-27T22:55:11.911Z,12.65
2023-04-27T22:57:39.500Z,9.20
2023-04-27T23:00:08.918Z,13.35
2023-04-27T23:02:36.073Z,10.30
2023-04-27T23:05:03.757Z,9.10
2023-04-27T23:07:30.445Z,8.43
2023-04-27T23:09:57.042Z,10.38
2023-04-27T23:12:26.865Z,8.57
2023-04-27T23:14:53.504Z,8.25
2023-04-27T23:17:22.542Z,9.43
2023-04-27T23:19:49.602Z,8.73
2023-04-27T23:22:16.247Z,9.55
2023-04-27T23:24:43.286Z,9.27
2023-04-27T23:27:09.956Z,8.88
2023-04-27T23:29:36.587Z,9.02
2023-04-27T23:32:04.259Z,8.32
2023-04-27T23:34:32.358Z,12.00
2023-04-27T23:36:59.567Z,10.35
2023-04-27T23:39:27.190Z,10.10
2023-04-27T23:41:53.813Z,11.27
2023-04-27T23:44:20.591Z,12.23
2023-04-27T23:46:47.302Z,11.18
2023-04-27T23:49:13.912Z,12.43
2023-04-27T23:51:40.676Z,7.38
2023-04-27T23:54:07.292Z,8.15
2023-04-27T23:56:33.926Z,7.45
2023-04-27T23:59:00.576Z,8.68
